Time;durP1;ratioP1;P1;durP2;ratioP2;P2;SDS_P1;SDS_P2;PMS_P1;PMS_P2;Temp;Humidity;BMP_temperature;BMP_pressure;BME280_temperature;BME280_humidity;BME280_pressure;Samples;Min_cycle;Max_cycle;Signal;HPM_P1;HPM_P2
2022/02/26 00:01:15;;;;;;;41.38;26.20;;;9.90;87.20;;;;;;5052686;28;20051;-68
2022/02/26 00:04:19;;;;;;;43.97;26.80;;;9.90;87.40;;;;;;5052829;28;20067;-68
2022/02/26 00:07:23;;;;;;;42.47;29.20;;;9.90;87.90;;;;;;5052771;28;20048;-69
2022/02/26 00:10:28;;;;;;;50.85;30.30;;;9.90;88.30;;;;;;5052916;28;20040;-69
2022/02/26 00:13:32;;;;;;;47.45;31.85;;;9.80;87.80;;;;;;5052866;28;20044;-68
2022/02/26 00:16:36;;;;;;;47.55;32.05;;;9.60;89.40;;;;;;5051860;28;20052;-69
2022/02/26 00:19:40;;;;;;;54.58;35.03;;;9.50;90.20;;;;;;5052648;28;20396;-69
2022/02/26 00:22:46;;;;;;;56.38;35.03;;;9.40;90.40;;;;;;5052908;28;20056;-69
2022/02/26 00:25:50;;;;;;;55.30;35.50;;;9.30;91.30;;;;;;5052339;28;20068;-69
2022/02/26 00:28:54;;;;;;;57.33;37.78;;;9.40;91.50;;;;;;5052220;28;20412;-69
2022/02/26 00:31:58;;;;;;;59.65;36.85;;;9.50;91.40;;;;;;5052372;28;20116;-68
2022/02/26 00:35:03;;;;;;;63.65;38.65;;;9.30;91.70;;;;;;5052289;28;20040;-69
2022/02/26 00:38:07;;;;;;;66.03;39.53;;;9.20;91.90;;;;;;5052113;28;20070;-69
2022/02/26 00:41:12;;;;;;;61.22;39.50;;;9.20;92.10;;;;;;5051350;28;20052;-69
2022/02/26 00:44:17;;;;;;;60.45;39.30;;;9.20;92.40;;;;;;5052182;28;20047;-69
2022/02/26 00:47:20;;;;;;;62.20;39.42;;;9.30;92.70;;;;;;5051447;28;20044;-69
2022/02/26 00:50:24;;;;;;;60.28;37.88;;;9.40;92.50;;;;;;5051920;28;20044;-70
2022/02/26 00:53:29;;;;;;;55.38;37.78;;;9.40;92.20;;;;;;5051120;28;20052;-69
2022/02/26 00:56:33;;;;;;;55.85;36.70;;;9.40;92.20;;;;;;5052094;28;20039;-68
2022/02/26 00:59:37;;;;;;;54.42;33.33;;;9.30;92.30;;;;;;5051848;28;20060;-69
2022/02/26 01:02:41;;;;;;;47.65;28.75;;;9.30;92.90;;;;;;5051535;28;20056;-69
2022/02/26 01:05:45;;;;;;;45.55;31.13;;;9.50;92.60;;;;;;5051925;28;20043;-69
2022/02/26 01:08:49;;;;;;;51.70;32.08;;;9.50;91.70;;;;;;5051788;28;20048;-69
2022/02/26 01:11:54;;;;;;;47.60;30.27;;;9.30;92.60;;;;;;5051692;28;20099;-69
2022/02/26 01:14:58;;;;;;;49.88;30.95;;;9.20;93.30;;;;;;5051774;28;20040;-69
2022/02/26 01:18:02;;;;;;;45.95;28.92;;;9.30;93.80;;;;;;5051214;28;20047;-69
2022/02/26 01:21:06;;;;;;;47.70;27.27;;;9.40;93.70;;;;;;5051378;28;20123;-69
2022/02/26 01:24:11;;;;;;;40.97;27.05;;;9.50;94.00;;;;;;5051571;28;20044;-68
2022/02/26 01:27:15;;;;;;;41.25;29.58;;;9.60;93.60;;;;;;5051340;28;20044;-69
2022/02/26 01:30:19;;;;;;;48.15;29.40;;;9.70;93.70;;;;;;5051333;28;20048;-68
2022/02/26 01:33:23;;;;;;;42.08;27.50;;;9.80;93.70;;;;;;5051238;28;20044;-68
2022/02/26 01:36:27;;;;;;;43.00;27.67;;;9.70;93.80;;;;;;5050993;28;20048;-68
2022/02/26 01:39:31;;;;;;;42.60;28.50;;;9.70;94.40;;;;;;5050302;28;20052;-68
2022/02/26 01:42:35;;;;;;;44.90;26.85;;;9.70;94.40;;;;;;5051034;28;20036;-68
2022/02/26 01:45:39;;;;;;;40.47;27.50;;;9.60;94.70;;;;;;5050864;28;20404;-67
2022/02/26 01:48:43;;;;;;;39.47;24.88;;;9.60;94.50;;;;;;5050882;28;20040;-68
2022/02/26 01:51:49;;;;;;;39.83;25.83;;;9.70;95.00;;;;;;5051287;28;20048;-68
2022/02/26 01:54:53;;;;;;;39.13;26.73;;;9.80;94.70;;;;;;5051074;28;20519;-68
2022/02/26 01:57:58;;;;;;;39.97;26.52;;;9.80;94.70;;;;;;5050111;28;20059;-68
2022/02/26 02:01:02;;;;;;;45.65;25.85;;;9.80;95.30;;;;;;5050921;28;20392;-68
2022/02/26 02:04:06;;;;;;;35.55;23.05;;;9.80;95.40;;;;;;5050871;28;20056;-68
2022/02/26 02:07:11;;;;;;;33.95;22.48;;;9.70;96.40;;;;;;5050702;28;20044;-68
2022/02/26 02:10:15;;;;;;;34.28;22.30;;;9.70;96.60;;;;;;5050529;28;20044;-68
2022/02/26 02:13:21;;;;;;;31.60;22.15;;;9.80;97.00;;;;;;5050702;28;20048;-68
2022/02/26 02:16:26;;;;;;;34.00;22.52;;;9.80;97.00;;;;;;5050715;28;20040;-68
2022/02/26 02:19:30;;;;;;;32.45;22.17;;;9.90;97.50;;;;;;5050509;28;20052;-68
2022/02/26 02:22:34;;;;;;;33.63;24.20;;;9.90;97.50;;;;;;5050568;28;20059;-68
2022/02/26 02:25:38;;;;;;;35.83;23.92;;;9.80;97.60;;;;;;5050844;28;20047;-68
2022/02/26 02:28:43;;;;;;;34.35;23.75;;;9.80;98.10;;;;;;5050543;28;20040;-68
2022/02/26 02:31:46;;;;;;;30.90;23.05;;;9.90;97.90;;;;;;5049766;28;20040;-68
2022/02/26 02:34:50;;;;;;;34.13;24.10;;;10.10;97.90;;;;;;5050645;28;20032;-68
2022/02/26 02:37:55;;;;;;;42.70;25.40;;;10.10;97.60;;;;;;5050599;28;20048;-68
2022/02/26 02:40:59;;;;;;;36.42;25.65;;;10.20;97.70;;;;;;5050418;28;20501;-68
2022/02/26 02:44:04;;;;;;;41.65;27.88;;;10.20;97.90;;;;;;5050479;28;20397;-68
2022/02/26 02:47:08;;;;;;;41.78;27.98;;;10.20;97.80;;;;;;5050474;28;20112;-68
2022/02/26 02:50:12;;;;;;;39.70;28.33;;;10.10;97.60;;;;;;5050361;28;20089;-68
2022/02/26 02:53:17;;;;;;;42.33;27.60;;;10.10;98.00;;;;;;5054052;28;20040;-68
2022/02/26 02:56:22;;;;;;;41.85;27.90;;;9.90;98.50;;;;;;5054362;28;20051;-68
2022/02/26 02:59:26;;;;;;;40.58;26.38;;;9.80;98.70;;;;;;5053828;28;20060;-68
2022/02/26 03:02:31;;;;;;;40.47;27.55;;;9.70;99.20;;;;;;5053950;28;20063;-68
2022/02/26 03:05:35;;;;;;;37.83;26.55;;;9.80;99.30;;;;;;5054118;28;20048;-68
2022/02/26 03:08:39;;;;;;;38.67;27.08;;;9.80;98.80;;;;;;5053973;28;20052;-68
2022/02/26 03:11:43;;;;;;;38.13;25.85;;;9.60;99.40;;;;;;5053946;28;20059;-68
2022/02/26 03:14:47;;;;;;;36.70;24.52;;;9.70;99.90;;;;;;5053919;28;20047;-68
2022/02/26 03:17:51;;;;;;;34.00;24.58;;;9.80;99.70;;;;;;5053732;28;20051;-68
2022/02/26 03:20:55;;;;;;;33.78;22.67;;;9.80;99.70;;;;;;5053539;28;20056;-68
2022/02/26 03:23:59;;;;;;;34.50;22.48;;;9.80;99.60;;;;;;5053474;28;20040;-69
2022/02/26 03:27:03;;;;;;;26.33;18.48;;;9.80;99.50;;;;;;5053644;28;20048;-68
2022/02/26 03:30:09;;;;;;;25.15;16.75;;;9.70;99.60;;;;;;5053562;28;20048;-68
2022/02/26 03:33:14;;;;;;;24.65;15.40;;;9.60;99.60;;;;;;5052953;28;20064;-68
2022/02/26 03:36:18;;;;;;;28.00;16.52;;;9.60;99.80;;;;;;5053711;28;20051;-67
2022/02/26 03:39:23;;;;;;;24.40;14.65;;;9.70;99.80;;;;;;5053358;28;20052;-68
2022/02/26 03:42:27;;;;;;;23.20;14.52;;;9.70;99.60;;;;;;5053327;28;20040;-68
2022/02/26 03:45:32;;;;;;;21.13;15.02;;;9.80;99.70;;;;;;5053539;28;20052;-68
2022/02/26 03:48:36;;;;;;;18.02;12.18;;;9.80;99.90;;;;;;5053453;28;20507;-68
2022/02/26 03:51:43;;;;;;;18.30;11.88;;;9.90;99.90;;;;;;5053104;28;20064;-67
2022/02/26 03:54:47;;;;;;;17.23;11.77;;;9.90;99.90;;;;;;5053332;28;20048;-67
2022/02/26 03:57:51;;;;;;;18.67;12.45;;;10.00;99.90;;;;;;5053151;28;20063;-68
2022/02/26 04:00:55;;;;;;;19.90;13.00;;;10.10;99.90;;;;;;5053137;28;20048;-68
2022/02/26 04:03:59;;;;;;;17.80;12.13;;;10.10;99.90;;;;;;5052201;28;20055;-68
2022/02/26 04:07:04;;;;;;;19.90;12.82;;;10.20;99.90;;;;;;5053160;28;20052;-68
2022/02/26 04:10:10;;;;;;;17.45;13.93;;;10.30;99.90;;;;;;5052982;28;20048;-68
2022/02/26 04:13:14;;;;;;;21.27;15.13;;;10.30;99.90;;;;;;5052578;28;20048;-68
2022/02/26 04:16:18;;;;;;;22.30;16.00;;;10.40;99.60;;;;;;5052837;28;20040;-68
2022/02/26 04:19:22;;;;;;;22.65;15.88;;;10.40;99.40;;;;;;5052396;28;20052;-68
2022/02/26 04:22:25;;;;;;;22.75;17.00;;;10.50;99.60;;;;;;5051835;28;20040;-68
2022/02/26 04:25:29;;;;;;;25.90;17.23;;;10.50;99.80;;;;;;5051530;28;20040;-68
2022/02/26 04:28:34;;;;;;;22.98;17.40;;;10.50;99.90;;;;;;5055520;28;20060;-67
2022/02/26 04:31:38;;;;;;;25.60;16.45;;;10.40;99.90;;;;;;5052451;28;20396;-68
2022/02/26 04:34:42;;;;;;;22.30;15.80;;;10.50;99.90;;;;;;5052203;28;20048;-69
2022/02/26 04:37:47;;;;;;;21.13;15.38;;;10.40;99.90;;;;;;5051947;28;20040;-69
2022/02/26 04:40:50;;;;;;;23.23;14.68;;;10.40;99.90;;;;;;5051324;28;20055;-69
2022/02/26 04:43:55;;;;;;;20.08;14.25;;;10.50;99.90;;;;;;5052220;28;20421;-68
2022/02/26 04:46:59;;;;;;;17.90;12.90;;;10.50;99.90;;;;;;5051874;28;20503;-69
2022/02/26 04:50:06;;;;;;;17.83;12.65;;;10.30;99.90;;;;;;5051898;28;20064;-69
2022/02/26 04:53:10;;;;;;;17.33;13.82;;;10.10;99.90;;;;;;5052137;28;20048;-69
2022/02/26 04:56:14;;;;;;;20.45;13.63;;;9.90;99.90;;;;;;5052119;28;20044;-69
2022/02/26 04:59:18;;;;;;;16.45;13.30;;;9.80;99.90;;;;;;5051673;28;20047;-68
2022/02/26 05:02:23;;;;;;;16.27;11.82;;;9.80;99.90;;;;;;5051766;28;20082;-69
2022/02/26 05:05:26;;;;;;;17.15;12.27;;;9.80;99.90;;;;;;5051779;28;20056;-69
2022/02/26 05:08:31;;;;;;;21.92;12.63;;;9.80;99.90;;;;;;5051483;28;20039;-69
2022/02/26 05:11:35;;;;;;;16.90;12.63;;;9.80;99.90;;;;;;5051510;28;20040;-70
2022/02/26 05:14:39;;;;;;;13.95;11.13;;;10.00;99.90;;;;;;5050889;28;20051;-69
2022/02/26 05:17:43;;;;;;;15.45;11.48;;;10.00;99.90;;;;;;5051644;28;20047;-68
2022/02/26 05:20:47;;;;;;;16.85;11.00;;;9.90;99.90;;;;;;5050638;28;20067;-68
2022/02/26 05:23:51;;;;;;;15.63;10.23;;;9.80;99.90;;;;;;5051385;28;20044;-69
2022/02/26 05:26:55;;;;;;;21.30;15.20;;;9.70;99.90;;;;;;5051486;28;20048;-69
2022/02/26 05:29:59;;;;;;;23.42;18.45;;;9.80;99.90;;;;;;5051294;28;20532;-68
2022/02/26 05:33:03;;;;;;;22.88;18.70;;;9.80;99.90;;;;;;5051061;28;20040;-68
2022/02/26 05:36:07;;;;;;;26.17;21.08;;;10.00;99.90;;;;;;5051251;28;20396;-68
2022/02/26 05:39:11;;;;;;;26.38;20.05;;;10.00;99.90;;;;;;5050919;28;20056;-68
2022/02/26 05:42:15;;;;;;;20.50;16.42;;;10.00;99.90;;;;;;5051203;28;20047;-68
2022/02/26 05:45:20;;;;;;;15.15;10.20;;;10.00;99.90;;;;;;5050036;28;20052;-68
2022/02/26 05:48:23;;;;;;;10.90;8.60;;;10.10;99.90;;;;;;5050864;28;20043;-68
2022/02/26 05:51:27;;;;;;;11.07;6.90;;;10.10;99.90;;;;;;5051004;28;20405;-68
2022/02/26 05:54:32;;;;;;;9.95;7.22;;;10.20;99.90;;;;;;5050993;28;20048;-68
2022/02/26 05:57:37;;;;;;;12.25;9.13;;;10.10;99.90;;;;;;5051172;28;20468;-59
2022/02/26 06:00:41;;;;;;;12.93;8.52;;;10.10;99.90;;;;;;5050867;28;20413;-59
2022/02/26 06:03:45;;;;;;;14.52;8.27;;;10.20;99.90;;;;;;5050650;28;20080;-59
2022/02/26 06:06:49;;;;;;;8.18;6.45;;;10.30;99.90;;;;;;5051005;28;20203;-59
2022/02/26 06:09:53;;;;;;;11.05;8.15;;;10.30;99.90;;;;;;5050614;28;20040;-58
2022/02/26 06:12:57;;;;;;;9.77;7.07;;;10.40;99.90;;;;;;5050691;28;20500;-58
2022/02/26 06:16:01;;;;;;;10.25;7.13;;;10.40;99.90;;;;;;5050793;28;20040;-59
2022/02/26 06:19:05;;;;;;;9.30;7.50;;;10.40;99.90;;;;;;5050457;28;20052;-59
2022/02/26 06:22:09;;;;;;;11.27;7.82;;;10.40;99.90;;;;;;5050701;28;20052;-60
2022/02/26 06:25:13;;;;;;;11.55;7.13;;;10.40;99.90;;;;;;5051181;28;20409;-60
2022/02/26 06:28:17;;;;;;;10.40;5.57;;;10.40;99.90;;;;;;5054637;28;20512;-58
2022/02/26 06:31:22;;;;;;;7.93;5.72;;;10.40;99.90;;;;;;5054698;28;20071;-60
2022/02/26 06:34:27;;;;;;;8.98;6.30;;;10.50;99.90;;;;;;5054788;28;20414;-58
2022/02/26 06:37:31;;;;;;;12.65;6.32;;;10.50;99.90;;;;;;5054485;28;20519;-58
2022/02/26 06:40:35;;;;;;;11.55;6.13;;;10.50;99.90;;;;;;5054676;28;20055;-58
2022/02/26 06:43:39;;;;;;;9.20;5.60;;;10.50;99.90;;;;;;5054680;28;20047;-60
2022/02/26 06:46:44;;;;;;;11.02;5.35;;;10.50;99.90;;;;;;5054303;28;20072;-58
2022/02/26 06:49:48;;;;;;;10.85;4.95;;;10.50;99.90;;;;;;5054363;28;20044;-58
2022/02/26 06:52:52;;;;;;;7.95;4.40;;;10.40;99.90;;;;;;5054133;28;20056;-59
2022/02/26 06:55:56;;;;;;;6.80;3.50;;;10.40;99.90;;;;;;5054221;28;20052;-59
2022/02/26 06:59:00;;;;;;;5.07;2.97;;;10.30;99.90;;;;;;5054020;28;20079;-59
2022/02/26 07:02:04;;;;;;;4.03;2.60;;;10.30;99.90;;;;;;5053844;28;20393;-60
2022/02/26 07:05:09;;;;;;;6.80;2.60;;;10.30;99.90;;;;;;5054182;28;20056;-59
2022/02/26 07:08:12;;;;;;;4.43;2.30;;;10.30;99.90;;;;;;5054260;28;20388;-59
2022/02/26 07:11:16;;;;;;;8.10;2.90;;;10.40;99.90;;;;;;5053967;28;20048;-60
2022/02/26 07:14:21;;;;;;;8.43;1.88;;;10.50;99.90;;;;;;5053770;28;20040;-59
2022/02/26 07:17:24;;;;;;;7.68;3.58;;;10.50;99.90;;;;;;5052960;28;20044;-59
2022/02/26 07:20:28;;;;;;;9.10;4.72;;;10.40;99.90;;;;;;5053581;28;20451;-59
2022/02/26 07:23:33;;;;;;;12.55;8.90;;;10.20;99.90;;;;;;5052518;28;20083;-59
2022/02/26 07:26:37;;;;;;;27.23;17.35;;;10.20;99.90;;;;;;5053763;28;20388;-58
2022/02/26 07:29:42;;;;;;;24.10;15.75;;;10.10;99.90;;;;;;5053569;28;20047;-60
2022/02/26 07:32:46;;;;;;;10.52;7.78;;;10.00;99.90;;;;;;5053388;28;20504;-59
2022/02/26 07:35:49;;;;;;;11.70;7.20;;;10.00;99.90;;;;;;5053281;28;20503;-58
2022/02/26 07:38:54;;;;;;;11.23;6.15;;;9.90;99.90;;;;;;5052124;28;20052;-59
2022/02/26 07:41:58;;;;;;;10.23;6.85;;;9.80;99.90;;;;;;5053326;28;20056;-60
2022/02/26 07:45:04;;;;;;;12.63;8.70;;;9.80;99.90;;;;;;5053274;28;20040;-61
2022/02/26 07:48:08;;;;;;;13.15;9.00;;;9.80;99.90;;;;;;5053498;28;20051;-59
2022/02/26 07:51:12;;;;;;;15.20;10.07;;;9.80;99.90;;;;;;5053404;28;20052;-59
2022/02/26 07:54:16;;;;;;;12.02;9.48;;;9.80;99.90;;;;;;5053252;28;20044;-59
2022/02/26 07:57:20;;;;;;;14.50;10.18;;;9.90;99.90;;;;;;5052963;28;20496;-59
2022/02/26 08:00:25;;;;;;;13.85;9.50;;;9.90;99.90;;;;;;5052589;28;20056;-59
2022/02/26 08:03:29;;;;;;;11.95;8.63;;;10.00;99.90;;;;;;5052337;28;20051;-59
2022/02/26 08:06:33;;;;;;;14.10;9.05;;;10.00;99.90;;;;;;5052792;28;20048;-59
2022/02/26 08:09:37;;;;;;;11.48;7.70;;;10.00;99.90;;;;;;5052677;28;20500;-59
2022/02/26 08:12:43;;;;;;;13.07;7.75;;;10.00;99.90;;;;;;5052173;28;20052;-59
2022/02/26 08:15:47;;;;;;;14.23;8.32;;;10.10;99.90;;;;;;5052492;28;20048;-59
2022/02/26 08:18:52;;;;;;;12.15;8.55;;;10.10;99.90;;;;;;5052177;28;20064;-59
2022/02/26 08:21:56;;;;;;;12.32;7.70;;;10.20;99.90;;;;;;5050757;28;20047;-59
2022/02/26 08:25:00;;;;;;;12.43;7.55;;;10.30;99.90;;;;;;5051644;28;20234;-59
2022/02/26 08:28:05;;;;;;;12.45;8.10;;;10.40;99.90;;;;;;5052096;28;20051;-58
2022/02/26 08:31:08;;;;;;;12.30;6.60;;;10.40;99.90;;;;;;5052225;28;20063;-58
2022/02/26 08:34:12;;;;;;;11.30;5.90;;;10.40;99.90;;;;;;5052203;28;20064;-59
2022/02/26 08:37:16;;;;;;;8.32;5.55;;;10.60;99.90;;;;;;5052336;28;20052;-58
2022/02/26 08:40:21;;;;;;;8.70;4.63;;;10.60;99.90;;;;;;5051869;28;20048;-58
2022/02/26 08:43:25;;;;;;;5.97;4.40;;;10.70;99.90;;;;;;5052256;28;20048;-59
2022/02/26 08:46:29;;;;;;;12.23;5.10;;;10.80;99.90;;;;;;5052265;28;20055;-59
2022/02/26 08:49:33;;;;;;;10.32;6.88;;;10.90;99.90;;;;;;5051819;28;20040;-59
2022/02/26 08:52:39;;;;;;;6.03;4.18;;;10.90;99.90;;;;;;5051761;28;20040;-59
2022/02/26 08:55:44;;;;;;;7.32;4.45;;;10.90;99.90;;;;;;5052054;28;20040;-59
2022/02/26 08:58:49;;;;;;;7.20;4.95;;;11.00;99.90;;;;;;5051708;28;20044;-59
2022/02/26 09:01:53;;;;;;;9.80;5.38;;;11.10;99.90;;;;;;5051885;28;20381;-60
2022/02/26 09:04:57;;;;;;;7.68;4.95;;;11.10;99.90;;;;;;5051622;28;20040;-61
2022/02/26 09:08:01;;;;;;;8.50;5.28;;;11.10;99.90;;;;;;5051241;28;20052;-60
2022/02/26 09:11:06;;;;;;;7.90;5.35;;;11.10;99.90;;;;;;5051373;28;20048;-59
2022/02/26 09:14:10;;;;;;;7.90;5.07;;;11.20;99.90;;;;;;5051905;28;20040;-60
2022/02/26 09:17:15;;;;;;;9.23;6.18;;;11.10;99.90;;;;;;5051051;28;20051;-59
2022/02/26 09:20:19;;;;;;;9.88;5.55;;;11.10;99.90;;;;;;5050217;28;20153;-59
2022/02/26 09:23:23;;;;;;;12.10;5.85;;;11.10;99.90;;;;;;5051527;28;20040;-59
2022/02/26 09:26:28;;;;;;;7.05;5.00;;;11.10;99.90;;;;;;5051675;28;20051;-59
2022/02/26 09:29:33;;;;;;;9.73;5.72;;;11.10;99.90;;;;;;5051038;28;20052;-59
2022/02/26 09:32:37;;;;;;;8.70;4.93;;;11.10;99.90;;;;;;5050024;28;20044;-59
2022/02/26 09:35:41;;;;;;;8.68;5.13;;;11.10;99.90;;;;;;5049766;28;20035;-59
2022/02/26 09:38:46;;;;;;;9.23;4.20;;;11.20;99.90;;;;;;5050873;28;20047;-59
2022/02/26 09:41:50;;;;;;;5.70;3.50;;;11.10;99.90;;;;;;5051298;28;20056;-60
2022/02/26 09:44:55;;;;;;;3.78;2.85;;;11.10;99.90;;;;;;5051302;28;20622;-59
2022/02/26 09:48:01;;;;;;;7.43;2.95;;;11.10;99.90;;;;;;5051147;28;20052;-59
2022/02/26 09:51:06;;;;;;;3.97;2.63;;;11.10;99.90;;;;;;5050974;28;20044;-59
2022/02/26 09:54:10;;;;;;;4.70;2.90;;;11.10;99.90;;;;;;5050587;28;20048;-60
2022/02/26 09:57:15;;;;;;;3.25;2.25;;;11.10;99.90;;;;;;5051041;28;20468;-60
2022/02/26 10:00:19;;;;;;;4.20;2.28;;;11.10;99.90;;;;;;5049959;28;20413;-59
2022/02/26 10:03:26;;;;;;;4.57;3.03;;;11.10;99.90;;;;;;5050777;28;20052;-58
2022/02/26 10:06:30;;;;;;;3.78;2.50;;;11.10;99.90;;;;;;5050998;28;20040;-58
2022/02/26 10:09:43;;;;;;;3.65;2.53;;;11.10;99.90;;;;;;5050524;28;20044;-59
2022/02/26 10:12:52;;;;;;;5.53;2.75;;;11.00;99.90;;;;;;5050741;28;20044;-59
2022/02/26 10:15:56;;;;;;;5.78;4.13;;;11.00;99.90;;;;;;5050677;28;20048;-59
2022/02/26 10:19:00;;;;;;;8.48;3.83;;;11.10;99.90;;;;;;5050215;28;20052;-58
2022/02/26 10:22:08;;;;;;;6.25;3.80;;;11.10;99.90;;;;;;5050719;28;20056;-58
2022/02/26 10:25:15;;;;;;;5.88;3.40;;;11.00;99.90;;;;;;5050357;28;20040;-59
2022/02/26 10:28:21;;;;;;;9.40;3.97;;;11.00;99.90;;;;;;5050578;28;20055;-59
2022/02/26 10:31:25;;;;;;;9.60;4.30;;;11.00;99.90;;;;;;5050669;28;20048;-59
2022/02/26 10:34:33;;;;;;;10.25;4.45;;;11.00;99.90;;;;;;5050802;28;20043;-58
2022/02/26 10:37:37;;;;;;;12.77;7.40;;;11.00;99.90;;;;;;5050114;28;20052;-58
2022/02/26 10:40:54;;;;;;;13.68;8.45;;;11.00;99.90;;;;;;5050040;28;20064;-58
2022/02/26 10:44:01;;;;;;;93.28;45.50;;;11.00;99.90;;;;;;5050357;28;20043;-58
2022/02/26 10:47:15;;;;;;;22.95;14.02;;;10.90;99.90;;;;;;5050280;28;20503;-58
2022/02/26 10:50:23;;;;;;;13.98;10.13;;;10.80;99.90;;;;;;5050300;28;20052;-58
2022/02/26 10:53:28;;;;;;;21.13;15.35;;;10.80;99.90;;;;;;5050308;28;20052;-59
2022/02/26 10:56:44;;;;;;;44.78;17.75;;;10.80;99.90;;;;;;5050377;28;20108;-58
2022/02/26 10:59:53;;;;;;;13.35;6.95;;;10.70;99.90;;;;;;5049920;28;20055;-57
2022/02/26 11:03:10;;;;;;;6.13;3.42;;;10.40;99.90;;;;;;5049723;28;20056;-58
2022/02/26 11:06:15;;;;;;;7.80;4.03;;;10.30;99.90;;;;;;5050298;28;20044;-58
2022/02/26 11:09:22;;;;;;;7.75;4.65;;;10.20;99.70;;;;;;5050120;28;20063;-58
2022/02/26 11:12:27;;;;;;;6.55;3.92;;;9.90;99.90;;;;;;5050884;28;20051;-58
2022/02/26 11:15:32;;;;;;;8.13;3.17;;;9.70;99.90;;;;;;5054096;28;20041;-58
2022/02/26 11:18:41;;;;;;;5.55;3.55;;;9.40;99.90;;;;;;5054060;28;20037;-58
2022/02/26 11:21:48;;;;;;;9.52;4.10;;;9.20;99.90;;;;;;5053542;28;20041;-58
2022/02/26 11:24:54;;;;;;;5.85;2.63;;;9.00;99.90;;;;;;5053476;28;20037;-58
2022/02/26 11:27:58;;;;;;;7.25;3.78;;;8.70;99.90;;;;;;5053667;28;20044;-59
2022/02/26 11:31:07;;;;;;;7.20;3.70;;;8.80;99.90;;;;;;5053733;28;20045;-58
2022/02/26 11:34:11;;;;;;;5.68;2.47;;;8.80;99.90;;;;;;5053625;28;20048;-58
2022/02/26 11:37:19;;;;;;;6.07;2.50;;;8.90;99.40;;;;;;5053309;28;20037;-59
2022/02/26 11:40:23;;;;;;;3.40;1.95;;;8.70;99.40;;;;;;5053050;28;20045;-59
2022/02/26 11:43:39;;;;;;;5.38;2.00;;;8.60;99.80;;;;;;5053362;28;20041;-60
2022/02/26 11:46:43;;;;;;;9.00;2.55;;;8.40;99.90;;;;;;5053463;28;20377;-60
2022/02/26 11:50:03;;;;;;;14.52;5.03;;;8.20;99.90;;;;;;5053494;28;20045;-59
2022/02/26 11:53:20;;;;;;;45.10;14.68;;;8.00;99.90;;;;;;5053310;28;20048;-60
2022/02/26 11:56:44;;;;;;;3.13;2.47;;;7.80;99.90;;;;;;5053033;28;20048;-59
2022/02/26 11:59:50;;;;;;;3.72;2.22;;;7.70;99.90;;;;;;5052987;28;20390;-59
2022/02/26 12:03:39;;;;;;;5.70;5.18;;;7.50;99.90;;;;;;5052761;28;20049;-59
2022/02/26 12:06:42;;;;;;;4.28;2.22;;;7.50;99.90;;;;;;5050400;28;20029;-59
2022/02/26 12:10:00;;;;;;;4.32;1.67;;;7.50;99.90;;;;;;5050211;28;20398;-59
2022/02/26 12:13:28;;;;;;;2.88;1.45;;;7.50;99.40;;;;;;5052662;28;20040;-59
2022/02/26 12:16:35;;;;;;;4.13;1.63;;;7.50;99.50;;;;;;5052751;28;20033;-59
2022/02/26 12:19:47;;;;;;;3.15;1.95;;;7.50;99.80;;;;;;5052509;28;20040;-59
2022/02/26 12:22:51;;;;;;;;;;;7.50;99.70;;;;;;5052849;28;20041;-58
2022/02/26 12:26:02;;;;;;;4.35;1.77;;;7.40;99.80;;;;;;5052731;28;19915;-59
2022/02/26 12:29:06;;;;;;;;;;;7.40;99.90;;;;;;5053035;28;20369;-60
2022/02/26 12:32:16;;;;;;;10.35;4.30;;;7.50;99.90;;;;;;5052281;28;19920;-60
2022/02/26 12:35:24;;;;;;;5.15;2.28;;;7.50;99.80;;;;;;5052659;28;20047;-60
2022/02/26 12:38:28;;;;;;;8.10;2.95;;;7.30;99.00;;;;;;5052494;28;20028;-59
2022/02/26 12:41:35;;;;;;;41.65;15.55;;;7.30;99.20;;;;;;5052523;28;20484;-59
2022/02/26 12:44:40;;;;;;;4.20;1.40;;;7.50;99.80;;;;;;5052513;28;20036;-61
2022/02/26 12:47:46;;;;;;;1.55;1.35;;;7.60;99.90;;;;;;5051699;28;20041;-60
2022/02/26 12:50:50;;;;;;;2.10;1.10;;;7.80;99.90;;;;;;5052175;28;20041;-59
2022/02/26 12:53:54;;;;;;;1.75;1.33;;;7.80;99.80;;;;;;5052365;28;20044;-60
2022/02/26 12:56:58;;;;;;;2.35;1.30;;;7.90;99.40;;;;;;5051832;28;20037;-60
2022/02/26 13:00:05;;;;;;;1.85;1.33;;;7.80;99.60;;;;;;5051574;28;20052;-59
2022/02/26 13:03:09;;;;;;;3.58;1.92;;;7.90;99.50;;;;;;5051672;28;20045;-60
2022/02/26 13:06:16;;;;;;;4.13;2.30;;;7.70;99.20;;;;;;5051823;28;20045;-59
2022/02/26 13:09:21;;;;;;;3.63;2.20;;;7.70;99.60;;;;;;5051923;28;20045;-60
2022/02/26 13:12:27;;;;;;;5.75;2.60;;;7.70;99.80;;;;;;5051805;28;20370;-58
2022/02/26 13:15:31;;;;;;;3.53;1.73;;;7.60;99.90;;;;;;5051698;28;20041;-59
2022/02/26 13:18:35;;;;;;;5.90;2.88;;;7.70;99.70;;;;;;5051473;28;20041;-59
2022/02/26 13:21:39;;;;;;;3.03;2.00;;;7.70;99.90;;;;;;5051284;28;20052;-59
2022/02/26 13:24:45;;;;;;;20.58;11.35;;;7.80;99.90;;;;;;5051579;28;20033;-58
2022/02/26 13:27:50;;;;;;;7.28;4.30;;;7.70;99.50;;;;;;5050920;28;20044;-59
2022/02/26 13:30:55;;;;;;;12.05;5.78;;;7.40;99.90;;;;;;5051113;28;20025;-58
2022/02/26 13:34:15;;;;;;;14.38;7.50;;;7.10;99.90;;;;;;5051125;28;20048;-59
2022/02/26 13:37:21;;;;;;;12.25;5.13;;;6.80;99.90;;;;;;5051079;28;20040;-60
2022/02/26 13:40:27;;;;;;;5.90;3.30;;;6.80;99.90;;;;;;5051038;28;20055;-60
2022/02/26 13:43:31;;;;;;;2.67;2.00;;;6.90;99.90;;;;;;5051202;28;20611;-60
2022/02/26 13:46:43;;;;;;;2.88;1.70;;;6.80;99.90;;;;;;5050926;28;20045;-60
2022/02/26 13:49:47;;;;;;;6.97;3.03;;;6.70;99.90;;;;;;5051023;28;20483;-58
2022/02/26 13:52:52;;;;;;;4.65;2.40;;;6.60;99.90;;;;;;5051097;28;20049;-58
2022/02/26 13:55:59;;;;;;;3.65;2.30;;;6.70;99.90;;;;;;5051060;28;20032;-59
2022/02/26 13:59:11;;;;;;;18.33;6.97;;;6.60;99.90;;;;;;5050885;28;20037;-60
2022/02/26 14:02:26;;;;;;;;;;;6.70;99.90;;;;;;5051431;28;20104;-60
2022/02/26 14:05:34;;;;;;;2.45;1.50;;;6.70;99.90;;;;;;5050582;28;20064;-59
2022/02/26 14:08:42;;;;;;;2.00;1.58;;;6.90;99.90;;;;;;5050588;28;20560;-60
2022/02/26 14:11:58;;;;;;;4.28;2.30;;;7.10;99.90;;;;;;5051101;28;20037;-60
2022/02/26 14:15:04;;;;;;;4.03;2.63;;;7.20;99.90;;;;;;5050659;28;20036;-60
2022/02/26 14:18:08;;;;;;;5.25;2.42;;;7.40;99.90;;;;;;5050869;28;20040;-60
2022/02/26 14:21:16;;;;;;;3.35;2.40;;;7.40;99.50;;;;;;5050784;28;20381;-59
2022/02/26 14:24:22;;;;;;;17.42;9.18;;;7.40;99.90;;;;;;5050806;28;20041;-60
2022/02/26 14:27:26;;;;;;;5.80;3.10;;;7.60;99.60;;;;;;5050698;28;20048;-60
2022/02/26 14:30:41;;;;;;;4.93;3.08;;;7.70;99.60;;;;;;5050718;28;20037;-60
2022/02/26 14:33:47;;;;;;;7.50;4.20;;;7.90;99.10;;;;;;5050942;28;20386;-60
2022/02/26 14:36:52;;;;;;;4.93;2.78;;;8.00;98.70;;;;;;5051037;28;20048;-60
2022/02/26 14:39:57;;;;;;;5.93;3.22;;;7.90;98.70;;;;;;5050647;28;20040;-60
2022/02/26 14:43:02;;;;;;;3.97;2.25;;;8.10;98.70;;;;;;5050902;28;20041;-63
2022/02/26 14:46:07;;;;;;;5.95;3.00;;;8.10;98.50;;;;;;5050555;28;20029;-60
2022/02/26 14:49:11;;;;;;;3.00;1.75;;;8.20;97.90;;;;;;5054651;28;20066;-60
2022/02/26 14:52:16;;;;;;;12.88;7.05;;;8.30;98.40;;;;;;5054611;28;20033;-60
2022/02/26 14:55:22;;;;;;;4.60;2.80;;;8.20;97.20;;;;;;5054277;28;20424;-60
2022/02/26 14:58:25;;;;;;;3.70;2.22;;;8.30;98.10;;;;;;5054541;28;20044;-61
2022/02/26 15:01:29;;;;;;;2.65;1.95;;;8.50;98.00;;;;;;5052150;28;20045;-61
2022/02/26 15:04:34;;;;;;;2.90;2.10;;;8.60;97.40;;;;;;5052670;28;20048;-60
2022/02/26 15:07:40;;;;;;;4.78;3.10;;;8.60;97.30;;;;;;5053752;28;20041;-60
2022/02/26 15:10:44;;;;;;;7.07;3.92;;;8.60;97.30;;;;;;5053892;28;20037;-60
2022/02/26 15:13:49;;;;;;;9.55;2.97;;;8.60;97.80;;;;;;5053773;28;20037;-60
2022/02/26 15:16:54;;;;;;;4.20;2.72;;;8.60;97.70;;;;;;5052667;28;20041;-60
2022/02/26 15:19:58;;;;;;;5.18;3.60;;;8.60;97.50;;;;;;5053805;28;20033;-61
2022/02/26 15:23:03;;;;;;;6.68;5.20;;;8.70;98.00;;;;;;5053871;28;20037;-60
2022/02/26 15:26:07;;;;;;;10.27;6.30;;;8.80;98.80;;;;;;5053875;28;20063;-59
2022/02/26 15:29:12;;;;;;;11.13;7.63;;;8.80;99.00;;;;;;5053329;28;20405;-59
2022/02/26 15:32:16;;;;;;;8.25;5.63;;;8.70;99.10;;;;;;5053183;28;20059;-61
2022/02/26 15:35:20;;;;;;;14.77;7.68;;;8.70;99.50;;;;;;5052644;28;20040;-60
2022/02/26 15:38:24;;;;;;;10.30;7.72;;;8.70;99.40;;;;;;5053268;28;20044;-61
2022/02/26 15:41:28;;;;;;;13.88;9.82;;;8.70;99.60;;;;;;5053014;28;20488;-60
2022/02/26 15:44:32;;;;;;;13.43;8.95;;;8.70;99.70;;;;;;5053535;28;20500;-60
2022/02/26 15:47:36;;;;;;;13.32;8.32;;;8.70;99.30;;;;;;5053262;28;20396;-60
2022/02/26 15:50:43;;;;;;;20.00;12.65;;;8.60;98.90;;;;;;5052664;28;20404;-60
2022/02/26 15:53:47;;;;;;;23.23;15.35;;;8.60;99.10;;;;;;5053058;28;20044;-60
2022/02/26 15:56:51;;;;;;;14.25;9.82;;;8.60;99.30;;;;;;5052766;28;20040;-60
2022/02/26 15:59:55;;;;;;;9.00;5.55;;;8.70;99.10;;;;;;5052277;28;20044;-63